TimeCDT,TemperatureF,Dew PointF,Humidity,Sea Level PressureIn,VisibilityMPH,Wind Direction,Wind SpeedMPH,Gust SpeedMPH,PrecipitationIn,Events,Conditions,WindDirDegrees,DateUTC
12:15 AM,42.8,14.0,31,30.16,10.0,Calm,Calm,-,N/A,,Mostly Cloudy,0,2013-03-20 05:15:00
12:35 AM,41.0,14.0,33,30.16,10.0,Calm,Calm,-,N/A,,Mostly Cloudy,0,2013-03-20 05:35:00
12:55 AM,42.8,12.2,29,30.16,10.0,Calm,Calm,-,N/A,,Mostly Cloudy,0,2013-03-20 05:55:00
1:15 AM,42.8,12.2,29,30.16,10.0,Calm,Calm,-,N/A,,Mostly Cloudy,0,2013-03-20 06:15:00
1:35 AM,39.2,24.8,56,30.15,10.0,Calm,Calm,-,N/A,,Mostly Cloudy,0,2013-03-20 06:35:00
1:55 AM,37.4,24.8,60,30.15,10.0,Calm,Calm,-,N/A,,Mostly Cloudy,0,2013-03-20 06:55:00
2:15 AM,35.6,26.6,70,30.15,10.0,Calm,Calm,-,N/A,,Mostly Cloudy,0,2013-03-20 07:15:00
2:35 AM,35.6,17.6,48,30.15,10.0,Calm,Calm,-,N/A,,Overcast,0,2013-03-20 07:35:00
2:55 AM,35.6,26.6,70,30.15,10.0,Calm,Calm,-,N/A,,Overcast,0,2013-03-20 07:55:00
3:15 AM,35.6,24.8,65,30.14,10.0,North,3.5,-,N/A,,Overcast,10,2013-03-20 08:15:00
3:35 AM,35.6,21.2,56,30.13,10.0,Calm,Calm,-,N/A,,Overcast,0,2013-03-20 08:35:00
3:55 AM,37.4,24.8,60,30.12,10.0,Calm,Calm,-,N/A,,Mostly Cloudy,0,2013-03-20 08:55:00
4:15 AM,37.4,24.8,60,30.13,10.0,Calm,Calm,-,N/A,,Overcast,0,2013-03-20 09:15:00
4:35 AM,37.4,24.8,60,30.12,10.0,North,3.5,-,N/A,,Overcast,360,2013-03-20 09:35:00
4:55 AM,35.6,21.2,56,30.12,10.0,Calm,Calm,-,N/A,,Mostly Cloudy,0,2013-03-20 09:55:00
5:15 AM,35.6,21.2,56,30.14,10.0,Calm,Calm,-,N/A,,Mostly Cloudy,0,2013-03-20 10:15:00
5:35 AM,35.6,19.4,52,30.14,10.0,Calm,Calm,-,N/A,,Partly Cloudy,0,2013-03-20 10:35:00
5:55 AM,35.6,21.2,56,30.14,10.0,Calm,Calm,-,N/A,,Partly Cloudy,0,2013-03-20 10:55:00
6:15 AM,32.0,24.8,75,30.15,10.0,Calm,Calm,-,N/A,,Partly Cloudy,0,2013-03-20 11:15:00
6:35 AM,32.0,21.2,64,30.14,10.0,Calm,Calm,-,N/A,,Clear,0,2013-03-20 11:35:00
6:55 AM,32.0,23.0,69,30.14,10.0,Calm,Calm,-,N/A,,Clear,0,2013-03-20 11:55:00
7:15 AM,30.2,23.0,75,30.14,10.0,Calm,Calm,-,N/A,,Clear,0,2013-03-20 12:15:00
7:35 AM,30.2,23.0,75,30.15,10.0,Calm,Calm,-,N/A,,Clear,0,2013-03-20 12:35:00
7:55 AM,30.2,26.6,86,30.15,10.0,Calm,Calm,-,N/A,,Clear,0,2013-03-20 12:55:00
8:15 AM,33.8,26.6,75,30.15,10.0,Calm,Calm,-,N/A,,Clear,0,2013-03-20 13:15:00
8:35 AM,37.4,28.4,70,30.15,10.0,Calm,Calm,-,N/A,,Clear,0,2013-03-20 13:35:00
8:55 AM,39.2,21.2,49,30.16,10.0,Calm,Calm,-,N/A,,Clear,0,2013-03-20 13:55:00
9:15 AM,42.8,15.8,34,30.16,10.0,Calm,Calm,-,N/A,,Clear,0,2013-03-20 14:15:00
9:35 AM,42.8,15.8,34,30.15,10.0,Calm,Calm,-,N/A,,Clear,0,2013-03-20 14:35:00
9:55 AM,44.6,14.0,29,30.15,10.0,Variable,4.6,-,N/A,,Clear,0,2013-03-20 14:55:00
10:15 AM,46.4,12.2,25,30.14,10.0,NNW,6.9,-,N/A,,Clear,330,2013-03-20 15:15:00
10:55 AM,48.2,15.8,27,30.14,10.0,NNW,9.2,-,N/A,,Clear,330,2013-03-20 15:55:00
11:15 AM,48.2,15.8,27,30.13,10.0,NNW,8.1,-,N/A,,Clear,340,2013-03-20 16:15:00
11:35 AM,48.2,19.4,32,30.13,10.0,WNW,9.2,-,N/A,,Clear,290,2013-03-20 16:35:00
11:55 AM,50.0,19.4,30,30.12,10.0,WNW,8.1,-,N/A,,Clear,290,2013-03-20 16:55:00
12:15 PM,50.0,21.2,32,30.12,10.0,WNW,9.2,-,N/A,,Clear,290,2013-03-20 17:15:00
12:35 PM,50.0,21.2,32,30.10,10.0,West,10.4,-,N/A,,Clear,280,2013-03-20 17:35:00
12:55 PM,51.8,24.8,35,30.10,10.0,WNW,16.1,-,N/A,,Clear,300,2013-03-20 17:55:00
1:15 PM,51.8,24.8,35,30.09,10.0,NW,11.5,24.2,N/A,,Partly Cloudy,320,2013-03-20 18:15:00
1:35 PM,51.8,24.8,35,30.07,10.0,NW,13.8,-,N/A,,Scattered Clouds,320,2013-03-20 18:35:00
1:55 PM,48.2,24.8,40,30.06,10.0,NNW,13.8,-,N/A,,Mostly Cloudy,330,2013-03-20 18:55:00
2:15 PM,51.8,24.8,35,30.04,10.0,NNW,13.8,-,N/A,,Mostly Cloudy,330,2013-03-20 19:15:00
2:35 PM,51.8,23.0,33,30.02,10.0,Variable,5.8,-,N/A,,Mostly Cloudy,0,2013-03-20 19:35:00
2:55 PM,51.8,23.0,33,30.01,10.0,WNW,12.7,-,N/A,,Scattered Clouds,300,2013-03-20 19:55:00
3:15 PM,53.6,24.8,33,30.00,10.0,West,13.8,-,N/A,,Scattered Clouds,280,2013-03-20 20:15:00
3:35 PM,51.8,21.2,30,30.00,10.0,West,13.8,-,N/A,,Partly Cloudy,280,2013-03-20 20:35:00
3:55 PM,50.0,23.0,35,29.99,10.0,WNW,12.7,-,N/A,,Partly Cloudy,290,2013-03-20 20:55:00
4:15 PM,50.0,21.2,32,29.98,10.0,West,17.3,-,N/A,,Clear,280,2013-03-20 21:15:00
4:35 PM,50.0,23.0,35,29.98,10.0,West,23.0,-,N/A,,Scattered Clouds,270,2013-03-20 21:35:00
4:55 PM,48.2,23.0,37,29.98,10.0,WNW,12.7,-,N/A,,Partly Cloudy,290,2013-03-20 21:55:00
5:15 PM,48.2,24.8,40,29.98,10.0,WNW,12.7,-,N/A,,Partly Cloudy,300,2013-03-20 22:15:00
5:35 PM,48.2,24.8,40,29.98,10.0,WNW,19.6,-,N/A,,Scattered Clouds,300,2013-03-20 22:35:00
5:55 PM,46.4,24.8,43,29.98,10.0,NW,18.4,-,N/A,,Scattered Clouds,320,2013-03-20 22:55:00
6:15 PM,46.4,26.6,46,29.99,10.0,NW,15.0,-,N/A,,Mostly Cloudy,310,2013-03-20 23:15:00
6:35 PM,44.6,24.8,46,29.99,10.0,NW,17.3,-,N/A,,Mostly Cloudy,320,2013-03-20 23:35:00
6:55 PM,42.8,26.6,53,30.00,10.0,NNW,16.1,-,N/A,,Overcast,340,2013-03-20 23:55:00
7:15 PM,42.8,26.6,53,30.00,10.0,NW,11.5,-,N/A,,Overcast,320,2013-03-21 00:15:00
7:35 PM,41.0,26.6,57,30.00,10.0,Variable,6.9,-,N/A,,Scattered Clouds,0,2013-03-21 00:35:00
7:55 PM,41.0,24.8,53,30.00,10.0,NW,9.2,-,N/A,,Partly Cloudy,320,2013-03-21 00:55:00
8:15 PM,41.0,24.8,53,30.01,10.0,NNW,15.0,-,N/A,,Mostly Cloudy,340,2013-03-21 01:15:00
8:35 PM,37.4,28.4,70,30.01,10.0,North,15.0,-,N/A,,Mostly Cloudy,350,2013-03-21 01:35:00
8:55 PM,35.6,26.6,70,30.02,10.0,North,11.5,-,N/A,,Partly Cloudy,350,2013-03-21 01:55:00
9:15 PM,35.6,26.6,70,30.02,10.0,North,12.7,-,N/A,,Clear,350,2013-03-21 02:15:00
9:35 PM,35.6,26.6,70,30.03,10.0,North,9.2,-,N/A,,Scattered Clouds,350,2013-03-21 02:35:00
9:55 PM,35.6,26.6,70,30.03,10.0,North,9.2,-,N/A,,Mostly Cloudy,350,2013-03-21 02:55:00
10:15 PM,35.6,24.8,65,30.03,10.0,North,10.4,-,N/A,,Mostly Cloudy,350,2013-03-21 03:15:00
10:35 PM,33.8,24.8,70,30.03,10.0,NNW,10.4,-,N/A,,Mostly Cloudy,340,2013-03-21 03:35:00
10:55 PM,33.8,24.8,70,30.02,10.0,North,11.5,-,N/A,,Partly Cloudy,360,2013-03-21 03:55:00
11:15 PM,32.0,21.2,64,30.03,10.0,NNW,11.5,-,N/A,,Partly Cloudy,340,2013-03-21 04:15:00
11:35 PM,30.2,21.2,69,30.03,10.0,North,8.1,-,N/A,,Clear,360,2013-03-21 04:35:00
11:55 PM,30.2,19.4,64,30.03,10.0,North,9.2,-,N/A,,Clear,10,2013-03-21 04:55:00